Time,TemperatureF,DewpointF,PressureIn,WindDirection,WindDirectionDegrees,WindSpeedMPH,WindSpeedGustMPH,Humidity,HourlyPrecipIn,Conditions,Clouds,dailyrainin,SoftwareType,DateUTC
2013-01-28 00:02:00,58.0,52.0,29.83,SW,221,6.0,16.0,81,0.00,,,0.10,,2013-01-28 06:02:00,
2013-01-28 00:11:00,58.0,52.0,29.83,SW,221,6.0,16.0,81,0.00,,,0.10,,2013-01-28 06:11:00,
2013-01-28 00:21:00,58.0,52.0,29.83,SW,223,8.0,15.0,81,0.00,,,0.10,,2013-01-28 06:21:00,
2013-01-28 00:32:00,58.0,53.0,29.83,SW,227,7.0,13.0,83,0.00,,,0.10,,2013-01-28 06:32:00,
2013-01-28 00:42:00,58.0,53.0,29.83,SW,227,7.0,13.0,83,0.00,,,0.10,,2013-01-28 06:42:00,
2013-01-28 00:52:00,57.0,52.0,29.84,SW,228,6.0,11.0,83,0.00,,,0.10,,2013-01-28 06:52:00,
2013-01-28 01:02:00,57.0,53.0,29.83,NNW,334,2.0,5.0,85,0.00,,,0.05,,2013-01-28 07:02:00,
2013-01-28 01:11:00,57.0,53.0,29.83,NNW,334,2.0,5.0,85,0.00,,,0.05,,2013-01-28 07:11:00,
2013-01-28 01:21:00,56.0,52.0,29.84,West,276,2.0,5.0,85,0.00,,,0.05,,2013-01-28 07:21:00,
2013-01-28 01:31:00,54.0,50.0,29.85,NNW,337,2.0,10.0,85,0.00,,,0.05,,2013-01-28 07:31:00,
2013-01-28 01:41:00,54.0,50.0,29.85,NNW,337,2.0,10.0,85,0.00,,,0.05,,2013-01-28 07:41:00,
2013-01-28 01:52:00,50.0,46.0,29.84,NW,313,2.0,6.0,86,0.00,,,0.05,,2013-01-28 07:52:00,
2013-01-28 02:01:00,49.0,45.0,29.84,NNW,338,3.0,6.0,87,0.00,,,0.01,,2013-01-28 08:01:00,
2013-01-28 02:11:00,49.0,46.0,29.85,NW,325,3.0,3.0,88,0.00,,,0.01,,2013-01-28 08:11:00,
2013-01-28 02:21:00,49.0,46.0,29.85,NW,325,3.0,3.0,88,0.00,,,0.01,,2013-01-28 08:21:00,
2013-01-28 02:32:00,48.0,45.0,29.85,NW,314,0.0,5.0,88,0.00,,,0.01,,2013-01-28 08:32:00,
2013-01-28 02:42:00,48.0,45.0,29.85,NW,314,0.0,5.0,88,0.00,,,0.01,,2013-01-28 08:42:00,
2013-01-28 02:52:00,47.0,44.0,29.85,NW,323,1.0,3.0,88,0.00,,,0.01,,2013-01-28 08:52:00,
2013-01-28 03:02:00,47.0,44.0,29.85,NW,323,1.0,5.0,89,0.00,,,0.01,,2013-01-28 09:02:00,
2013-01-28 03:11:00,47.0,44.0,29.85,NW,323,1.0,5.0,89,0.00,,,0.01,,2013-01-28 09:11:00,
2013-01-28 03:21:00,47.0,44.0,29.85,NW,317,0.0,4.0,88,0.00,,,0.01,,2013-01-28 09:21:00,
2013-01-28 03:32:00,47.0,44.0,29.85,NNW,335,0.0,2.0,89,0.00,,,0.01,,2013-01-28 09:32:00,
2013-01-28 03:42:00,47.0,44.0,29.85,NNW,335,0.0,2.0,89,0.00,,,0.01,,2013-01-28 09:42:00,
2013-01-28 03:51:00,46.0,43.0,29.85,NNW,335,1.0,3.0,89,0.00,,,0.01,,2013-01-28 09:51:00,
2013-01-28 04:02:00,46.0,43.0,29.85,NNW,335,1.0,3.0,89,0.01,,,0.02,,2013-01-28 10:02:00,
2013-01-28 04:11:00,46.0,43.0,29.85,NNW,335,1.0,3.0,89,0.01,,,0.02,,2013-01-28 10:11:00,
2013-01-28 04:21:00,46.0,43.0,29.86,NNW,335,0.0,2.0,90,0.01,,,0.02,,2013-01-28 10:21:00,
2013-01-28 04:32:00,46.0,43.0,29.87,NNW,335,0.0,2.0,89,0.01,,,0.02,,2013-01-28 10:32:00,
2013-01-28 04:41:00,46.0,43.0,29.87,NNW,335,0.0,2.0,89,0.01,,,0.02,,2013-01-28 10:41:00,
2013-01-28 04:52:00,46.0,43.0,29.85,NNW,335,3.0,3.0,90,0.01,,,0.02,,2013-01-28 10:52:00,
2013-01-28 05:02:00,46.0,43.0,29.85,NE,34,4.0,5.0,90,0.00,,,0.02,,2013-01-28 11:02:00,
2013-01-28 05:11:00,46.0,43.0,29.85,NE,34,4.0,5.0,90,0.00,,,0.02,,2013-01-28 11:11:00,
2013-01-28 05:22:00,46.0,43.0,29.85,NE,34,3.0,4.0,90,0.00,,,0.02,,2013-01-28 11:22:00,
2013-01-28 05:32:00,46.0,43.0,29.85,North,0,5.0,5.0,90,0.00,,,0.02,,2013-01-28 11:32:00,
2013-01-28 05:42:00,46.0,43.0,29.85,North,0,5.0,5.0,90,0.00,,,0.02,,2013-01-28 11:42:00,
2013-01-28 05:52:00,46.0,44.0,29.85,NW,325,4.0,4.0,91,0.00,,,0.02,,2013-01-28 11:52:00,
2013-01-28 06:03:00,46.0,44.0,29.85,East,98,6.0,6.0,91,0.00,,,0.02,,2013-01-28 12:03:00,
2013-01-28 06:11:00,46.0,44.0,29.85,East,98,6.0,6.0,91,0.00,,,0.02,,2013-01-28 12:11:00,
2013-01-28 06:23:00,46.0,44.0,29.85,NNE,27,3.0,5.0,91,0.00,,,0.02,,2013-01-28 12:23:00,
2013-01-28 06:33:00,46.0,44.0,29.85,NNE,27,3.0,4.0,91,0.00,,,0.02,,2013-01-28 12:33:00,
2013-01-28 06:42:00,46.0,44.0,29.85,NNE,27,3.0,4.0,91,0.00,,,0.02,,2013-01-28 12:42:00,
2013-01-28 06:52:00,46.0,44.0,29.87,NNE,19,3.0,5.0,91,0.00,,,0.02,,2013-01-28 12:52:00,
2013-01-28 07:02:00,46.0,43.0,29.87,WNW,299,2.0,3.0,90,0.00,,,0.02,,2013-01-28 13:02:00,
2013-01-28 07:12:00,46.0,43.0,29.87,WNW,299,2.0,3.0,90,0.00,,,0.02,,2013-01-28 13:12:00,
2013-01-28 07:23:00,46.0,43.0,29.90,NNE,29,2.0,4.0,90,0.00,,,0.02,,2013-01-28 13:23:00,
2013-01-28 07:33:00,46.0,43.0,29.87,NNE,32,3.0,5.0,90,0.00,,,0.02,,2013-01-28 13:33:00,
2013-01-28 07:42:00,46.0,43.0,29.87,NNE,32,3.0,5.0,90,0.00,,,0.02,,2013-01-28 13:42:00,
2013-01-28 07:53:00,46.0,43.0,29.86,NE,45,3.0,5.0,90,0.00,,,0.02,,2013-01-28 13:53:00,
2013-01-28 08:02:00,46.0,44.0,29.87,NE,53,2.0,5.0,91,0.00,,,0.01,,2013-01-28 14:02:00,
2013-01-28 08:12:00,46.0,44.0,29.87,NE,53,2.0,5.0,91,0.00,,,0.01,,2013-01-28 14:12:00,
2013-01-28 08:22:00,46.0,44.0,29.86,NE,53,3.0,5.0,91,0.00,,,0.01,,2013-01-28 14:22:00,
2013-01-28 08:33:00,46.0,44.0,29.86,NE,53,4.0,5.0,91,0.00,,,0.01,,2013-01-28 14:33:00,
2013-01-28 08:42:00,46.0,44.0,29.86,NE,53,4.0,5.0,91,0.00,,,0.01,,2013-01-28 14:42:00,
2013-01-28 08:53:00,47.0,45.0,29.87,East,85,4.0,5.0,91,0.00,,,0.01,,2013-01-28 14:53:00,
2013-01-28 09:03:00,47.0,45.0,29.86,ENE,68,4.0,5.0,91,0.00,,,0.01,,2013-01-28 15:03:00,
2013-01-28 09:12:00,47.0,45.0,29.86,ENE,68,4.0,5.0,91,0.00,,,0.01,,2013-01-28 15:12:00,
2013-01-28 09:23:00,47.0,45.0,29.88,ENE,74,3.0,6.0,91,0.00,,,0.01,,2013-01-28 15:23:00,
2013-01-28 09:33:00,48.0,45.0,29.85,ENE,68,5.0,7.0,91,0.00,,,0.01,,2013-01-28 15:33:00,
2013-01-28 09:43:00,48.0,45.0,29.85,ENE,68,5.0,7.0,91,0.00,,,0.01,,2013-01-28 15:43:00,
2013-01-28 09:53:00,49.0,46.0,29.87,East,88,5.0,7.0,91,0.00,,,0.01,,2013-01-28 15:53:00,
2013-01-28 10:03:00,50.0,47.0,29.88,East,101,5.0,6.0,91,0.00,,,0.01,,2013-01-28 16:03:00,
2013-01-28 10:12:00,50.0,47.0,29.88,East,101,5.0,6.0,91,0.00,,,0.01,,2013-01-28 16:12:00,
2013-01-28 10:22:00,53.0,50.0,29.87,ESE,123,4.0,6.0,91,0.00,,,0.01,,2013-01-28 16:22:00,
2013-01-28 10:32:00,54.0,51.0,29.85,East,96,4.0,5.0,90,0.00,,,0.01,,2013-01-28 16:32:00,
2013-01-28 10:42:00,54.0,51.0,29.85,East,96,4.0,5.0,90,0.00,,,0.01,,2013-01-28 16:42:00,
2013-01-28 10:53:00,56.0,53.0,29.83,SE,145,3.0,5.0,89,0.00,,,0.01,,2013-01-28 16:53:00,
2013-01-28 11:01:00,59.0,55.0,29.85,SE,135,4.0,6.0,87,0.00,,,0.01,,2013-01-28 17:01:00,
2013-01-28 11:12:00,59.0,55.0,29.85,SE,135,4.0,6.0,87,0.00,,,0.01,,2013-01-28 17:12:00,
2013-01-28 11:22:00,60.0,54.0,29.84,SE,141,2.0,8.0,82,0.00,,,0.01,,2013-01-28 17:22:00,
2013-01-28 11:32:00,61.0,55.0,29.83,SSE,159,6.0,6.0,80,0.00,,,0.01,,2013-01-28 17:32:00,
2013-01-28 11:42:00,61.0,55.0,29.83,SSE,159,6.0,6.0,80,0.00,,,0.01,,2013-01-28 17:42:00,
2013-01-28 11:52:00,64.0,55.0,29.83,SSW,194,6.0,14.0,73,0.00,,,0.01,,2013-01-28 17:52:00,
2013-01-28 12:02:00,65.0,55.0,29.83,SW,215,9.0,13.0,70,0.00,,,0.01,,2013-01-28 18:02:00,
2013-01-28 12:12:00,65.0,55.0,29.83,SW,215,9.0,13.0,70,0.00,,,0.01,,2013-01-28 18:12:00,
2013-01-28 12:23:00,68.0,55.0,29.83,South,188,8.0,14.0,63,0.00,,,0.01,,2013-01-28 18:23:00,
2013-01-28 12:33:00,68.0,54.0,29.82,South,185,8.0,13.0,61,0.00,,,0.01,,2013-01-28 18:33:00,
2013-01-28 12:42:00,68.0,54.0,29.82,South,185,8.0,13.0,61,0.00,,,0.01,,2013-01-28 18:42:00,
2013-01-28 12:52:00,69.0,55.0,29.79,SSW,194,4.0,11.0,60,0.00,,,0.01,,2013-01-28 18:52:00,
2013-01-28 13:02:00,70.0,54.0,29.78,SSW,198,7.0,14.0,57,0.00,,,0.01,,2013-01-28 19:02:00,
2013-01-28 13:12:00,70.0,54.0,29.77,SSE,167,4.0,17.0,56,0.00,,,0.01,,2013-01-28 19:12:00,
2013-01-28 13:22:00,70.0,54.0,29.77,SSE,167,4.0,17.0,56,0.00,,,0.01,,2013-01-28 19:22:00,
2013-01-28 13:32:00,71.0,54.0,29.76,SSW,206,7.0,12.0,55,0.00,,,0.01,,2013-01-28 19:32:00,
2013-01-28 13:42:00,71.0,54.0,29.76,SSW,206,7.0,12.0,55,0.00,,,0.01,,2013-01-28 19:42:00,
2013-01-28 13:52:00,72.0,54.0,29.75,South,185,12.0,16.0,53,0.00,,,0.01,,2013-01-28 19:52:00,
2013-01-28 14:02:00,72.0,53.0,29.74,South,188,10.0,14.0,51,0.00,,,0.01,,2013-01-28 20:02:00,
2013-01-28 14:12:00,72.0,53.0,29.74,South,188,10.0,14.0,51,0.00,,,0.01,,2013-01-28 20:12:00,
2013-01-28 14:22:00,73.0,53.0,29.74,SSW,210,10.0,15.0,50,0.00,,,0.01,,2013-01-28 20:22:00,
2013-01-28 14:33:00,73.0,52.0,29.72,South,186,10.0,18.0,48,0.00,,,0.01,,2013-01-28 20:33:00,
2013-01-28 14:42:00,73.0,52.0,29.72,South,186,10.0,18.0,48,0.00,,,0.01,,2013-01-28 20:42:00,
2013-01-28 14:52:00,73.0,52.0,29.72,SSW,198,7.0,20.0,48,0.00,,,0.01,,2013-01-28 20:52:00,
2013-01-28 15:03:00,73.0,51.0,29.72,SSW,200,12.0,21.0,46,0.00,,,0.01,,2013-01-28 21:03:00,
2013-01-28 15:11:00,73.0,51.0,29.72,SSW,200,12.0,21.0,46,0.00,,,0.01,,2013-01-28 21:11:00,
2013-01-28 15:22:00,73.0,52.0,29.72,SSW,208,9.0,16.0,47,0.00,,,0.01,,2013-01-28 21:22:00,
2013-01-28 15:33:00,73.0,53.0,29.72,South,181,10.0,19.0,50,0.00,,,0.01,,2013-01-28 21:33:00,
2013-01-28 15:42:00,73.0,53.0,29.72,South,181,10.0,19.0,50,0.00,,,0.01,,2013-01-28 21:42:00,
2013-01-28 15:52:00,72.0,53.0,29.73,South,189,7.0,13.0,51,0.00,,,0.01,,2013-01-28 21:52:00,
2013-01-28 16:02:00,72.0,54.0,29.71,South,185,13.0,16.0,53,0.00,,,0.01,,2013-01-28 22:02:00,
2013-01-28 16:11:00,72.0,54.0,29.71,South,185,13.0,16.0,53,0.00,,,0.01,,2013-01-28 22:11:00,
2013-01-28 16:22:00,72.0,54.0,29.72,SSW,202,8.0,15.0,53,0.00,,,0.01,,2013-01-28 22:22:00,
2013-01-28 16:32:00,71.0,54.0,29.71,SSW,192,5.0,16.0,56,0.00,,,0.01,,2013-01-28 22:32:00,
2013-01-28 16:42:00,71.0,54.0,29.71,SSW,192,5.0,16.0,56,0.00,,,0.01,,2013-01-28 22:42:00,
2013-01-28 16:52:00,71.0,54.0,29.72,South,188,7.0,12.0,56,0.00,,,0.01,,2013-01-28 22:52:00,
2013-01-28 17:02:00,71.0,55.0,29.72,SSW,193,4.0,12.0,58,0.00,,,0.01,,2013-01-28 23:02:00,
2013-01-28 17:11:00,71.0,55.0,29.72,SSW,193,4.0,12.0,58,0.00,,,0.01,,2013-01-28 23:11:00,
2013-01-28 17:22:00,70.0,55.0,29.71,SSW,203,7.0,11.0,59,0.00,,,0.01,,2013-01-28 23:22:00,
2013-01-28 17:32:00,70.0,56.0,29.71,South,174,4.0,11.0,61,0.00,,,0.01,,2013-01-28 23:32:00,
2013-01-28 17:42:00,70.0,56.0,29.71,South,174,4.0,11.0,61,0.00,,,0.01,,2013-01-28 23:42:00,
2013-01-28 17:52:00,70.0,57.0,29.71,South,184,7.0,13.0,63,0.00,,,0.01,,2013-01-28 23:52:00,
2013-01-28 18:02:00,69.0,56.0,29.70,South,191,6.0,10.0,63,0.00,,,0.01,,2013-01-29 00:02:00,
2013-01-28 18:12:00,69.0,56.0,29.70,South,191,6.0,10.0,63,0.00,,,0.01,,2013-01-29 00:12:00,
2013-01-28 18:22:00,69.0,56.0,29.71,SSW,194,6.0,9.0,64,0.00,,,0.01,,2013-01-29 00:22:00,
2013-01-28 18:32:00,69.0,57.0,29.70,South,176,8.0,12.0,65,0.00,,,0.01,,2013-01-29 00:32:00,
2013-01-28 18:42:00,69.0,57.0,29.70,South,176,8.0,12.0,65,0.00,,,0.01,,2013-01-29 00:42:00,
2013-01-28 18:52:00,69.0,57.0,29.70,South,189,7.0,17.0,65,0.00,,,0.01,,2013-01-29 00:52:00,
2013-01-28 19:02:00,68.0,56.0,29.72,South,186,6.0,15.0,66,0.00,,,0.01,,2013-01-29 01:02:00,
2013-01-28 19:11:00,68.0,56.0,29.72,South,186,6.0,15.0,66,0.00,,,0.01,,2013-01-29 01:11:00,
2013-01-28 19:22:00,68.0,56.0,29.71,South,182,11.0,14.0,66,0.00,,,0.01,,2013-01-29 01:22:00,
2013-01-28 19:32:00,68.0,57.0,29.70,South,189,13.0,22.0,67,0.00,,,0.01,,2013-01-29 01:32:00,
2013-01-28 19:42:00,68.0,57.0,29.70,South,189,13.0,22.0,67,0.00,,,0.01,,2013-01-29 01:42:00,
2013-01-28 19:52:00,68.0,56.0,29.70,South,187,16.0,22.0,66,0.00,,,0.01,,2013-01-29 01:52:00,
2013-01-28 20:02:00,68.0,57.0,29.69,South,184,8.0,18.0,67,0.00,,,0.01,,2013-01-29 02:02:00,
2013-01-28 20:12:00,68.0,57.0,29.69,South,184,8.0,18.0,67,0.00,,,0.01,,2013-01-29 02:12:00,
2013-01-28 20:21:00,68.0,57.0,29.71,SSW,192,8.0,16.0,67,0.00,,,0.01,,2013-01-29 02:21:00,
2013-01-28 20:32:00,67.0,56.0,29.70,SSW,192,5.0,14.0,69,0.00,,,0.01,,2013-01-29 02:32:00,
2013-01-28 20:42:00,67.0,56.0,29.70,SSW,192,5.0,14.0,69,0.00,,,0.01,,2013-01-29 02:42:00,
2013-01-28 20:53:00,67.0,56.0,29.70,SW,217,13.0,17.0,69,0.00,,,0.01,,2013-01-29 02:53:00,
2013-01-28 21:03:00,67.0,56.0,29.70,SSW,211,10.0,18.0,69,0.00,,,0.01,,2013-01-29 03:03:00,
2013-01-28 21:11:00,67.0,56.0,29.70,SSW,211,10.0,18.0,69,0.00,,,0.01,,2013-01-29 03:11:00,
2013-01-28 21:22:00,67.0,57.0,29.69,SSW,202,8.0,15.0,70,0.00,,,0.01,,2013-01-29 03:22:00,
2013-01-28 21:32:00,67.0,57.0,29.70,SSW,197,11.0,18.0,71,0.00,,,0.01,,2013-01-29 03:32:00,
2013-01-28 21:42:00,67.0,57.0,29.70,SSW,197,11.0,18.0,71,0.00,,,0.01,,2013-01-29 03:42:00,
2013-01-28 21:53:00,67.0,58.0,29.69,SSW,213,13.0,17.0,72,0.00,,,0.01,,2013-01-29 03:53:00,
2013-01-28 22:02:00,67.0,58.0,29.69,SSW,205,13.0,18.0,72,0.00,,,0.01,,2013-01-29 04:02:00,
2013-01-28 22:11:00,67.0,58.0,29.69,SSW,205,13.0,18.0,72,0.00,,,0.01,,2013-01-29 04:11:00,
2013-01-28 22:21:00,67.0,58.0,29.68,South,190,9.0,20.0,73,0.00,,,0.01,,2013-01-29 04:21:00,
2013-01-28 22:32:00,67.0,58.0,29.68,SSW,202,7.0,20.0,73,0.00,,,0.01,,2013-01-29 04:32:00,
2013-01-28 22:41:00,67.0,58.0,29.68,SSW,202,7.0,20.0,73,0.00,,,0.01,,2013-01-29 04:41:00,
2013-01-28 22:52:00,67.0,58.0,29.67,SSW,202,11.0,20.0,73,0.00,,,0.01,,2013-01-29 04:52:00,
2013-01-28 23:03:00,67.0,58.0,29.67,SW,216,18.0,24.0,74,0.00,,,0.01,,2013-01-29 05:03:00,
2013-01-28 23:12:00,67.0,58.0,29.67,SW,216,18.0,24.0,74,0.00,,,0.01,,2013-01-29 05:12:00,
2013-01-28 23:21:00,67.0,58.0,29.68,SSW,195,7.0,21.0,74,0.00,,,0.01,,2013-01-29 05:21:00,
2013-01-28 23:32:00,67.0,58.0,29.67,SSW,204,10.0,20.0,74,0.00,,,0.01,,2013-01-29 05:32:00,
2013-01-28 23:42:00,67.0,58.0,29.67,SSW,204,10.0,20.0,74,0.00,,,0.01,,2013-01-29 05:42:00,
2013-01-28 23:52:00,67.0,58.0,29.67,SSW,200,11.0,20.0,74,0.00,,,0.01,,2013-01-29 05:52:00,